createdAt,value
2023-01-17T00:00:25.841Z,976.7
2023-01-17T00:01:25.809Z,976.8
2023-01-17T00:02:25.856Z,976.8
2023-01-17T00:03:25.911Z,976.8
2023-01-17T00:04:25.817Z,976.9
2023-01-17T00:05:25.814Z,976.8
2023-01-17T00:06:25.815Z,976.8
2023-01-17T00:07:25.806Z,976.8
2023-01-17T00:08:25.805Z,976.9
2023-01-17T00:09:25.812Z,976.9
2023-01-17T00:10:25.830Z,976.9
2023-01-17T00:11:25.828Z,976.9
2023-01-17T00:12:25.811Z,976.9
2023-01-17T00:13:25.808Z,976.9
2023-01-17T00:14:25.807Z,976.9
2023-01-17T00:15:25.817Z,976.9
2023-01-17T00:16:25.815Z,977
2023-01-17T00:17:25.823Z,976.9
2023-01-17T00:18:25.811Z,976.9
2023-01-17T00:19:25.814Z,976.9
2023-01-17T00:20:25.814Z,976.8
2023-01-17T00:21:25.802Z,976.9
2023-01-17T00:22:25.815Z,976.9
2023-01-17T00:23:25.799Z,976.9
2023-01-17T00:24:25.815Z,976.9
2023-01-17T00:25:25.817Z,976.9
2023-01-17T00:26:25.815Z,976.9
2023-01-17T00:27:25.812Z,977
2023-01-17T00:28:25.820Z,976.9
2023-01-17T00:29:25.809Z,976.9
2023-01-17T00:30:25.915Z,977
2023-01-17T00:31:25.862Z,977
2023-01-17T00:32:25.815Z,977
2023-01-17T00:33:25.820Z,977.1
2023-01-17T00:34:25.856Z,977
2023-01-17T00:35:25.804Z,977.1
2023-01-17T00:37:25.812Z,977
2023-01-17T00:38:25.813Z,977.1
2023-01-17T00:39:25.812Z,977.1
2023-01-17T00:40:25.812Z,977.1
2023-01-17T00:41:25.807Z,977.1
2023-01-17T00:42:25.812Z,977.1
2023-01-17T00:43:25.809Z,977.1
2023-01-17T00:44:25.813Z,977.2
2023-01-17T00:45:25.806Z,977.2
2023-01-17T00:46:25.871Z,977.2
2023-01-17T00:47:25.814Z,977.2
2023-01-17T00:48:25.857Z,977.3
2023-01-17T00:49:25.813Z,977.2
2023-01-17T00:50:25.809Z,977.3
2023-01-17T00:51:25.818Z,977.3
2023-01-17T00:52:25.811Z,977.3
2023-01-17T00:53:25.813Z,977.3
2023-01-17T00:54:25.818Z,977.3
2023-01-17T00:55:25.818Z,977.3
2023-01-17T00:56:25.812Z,977.4
2023-01-17T00:57:25.814Z,977.4
2023-01-17T00:58:25.809Z,977.4
2023-01-17T00:59:25.808Z,977.4
2023-01-17T01:00:25.812Z,977.4
2023-01-17T01:01:25.966Z,977.5
2023-01-17T01:02:28.412Z,977.5
2023-01-17T01:03:25.808Z,977.6
2023-01-17T01:04:25.824Z,977.5
2023-01-17T01:05:25.843Z,977.5
2023-01-17T01:06:25.801Z,977.6
2023-01-17T01:07:25.813Z,977.6
2023-01-17T01:08:25.824Z,977.6
2023-01-17T01:09:25.832Z,977.6
2023-01-17T01:10:25.808Z,977.7
2023-01-17T01:11:25.831Z,977.7
2023-01-17T01:12:25.816Z,977.7
2023-01-17T01:13:25.806Z,977.7
2023-01-17T01:14:25.809Z,977.7
2023-01-17T01:15:25.802Z,977.7
2023-01-17T01:16:25.900Z,977.8
2023-01-17T01:17:25.803Z,977.8
2023-01-17T01:18:25.815Z,977.8
2023-01-17T01:19:25.817Z,977.8
2023-01-17T01:20:25.813Z,977.8
2023-01-17T01:21:25.814Z,977.9
2023-01-17T01:22:25.811Z,977.8
2023-01-17T01:23:25.804Z,977.8
2023-01-17T01:24:25.818Z,977.9
2023-01-17T01:25:25.800Z,977.9
2023-01-17T01:26:25.821Z,978
2023-01-17T01:27:25.836Z,978
2023-01-17T01:28:25.808Z,978
2023-01-17T01:29:25.809Z,978
2023-01-17T01:30:25.802Z,978
2023-01-17T01:31:25.823Z,978
2023-01-17T01:32:25.810Z,978
2023-01-17T01:33:25.808Z,978
2023-01-17T01:34:25.814Z,978.1
2023-01-17T01:35:25.820Z,978
2023-01-17T01:36:25.826Z,978.1
2023-01-17T01:37:25.809Z,978.1
2023-01-17T01:38:25.848Z,978.1
2023-01-17T01:39:25.824Z,978.2
2023-01-17T01:40:25.800Z,978.2
2023-01-17T01:41:25.825Z,978.3
2023-01-17T01:42:25.807Z,978.2
2023-01-17T01:43:25.844Z,978.2
2023-01-17T01:44:25.817Z,978.4
2023-01-17T01:45:25.811Z,978.3
2023-01-17T01:46:25.807Z,978.4
2023-01-17T01:47:25.815Z,978.4
2023-01-17T01:48:25.874Z,978.4
2023-01-17T01:49:25.805Z,978.5
2023-01-17T01:50:25.806Z,978.5
2023-01-17T01:51:25.812Z,978.6
2023-01-17T01:52:25.804Z,978.6
2023-01-17T01:53:25.806Z,978.7
2023-01-17T01:54:25.799Z,978.7
2023-01-17T01:55:25.796Z,978.7
2023-01-17T01:56:25.803Z,978.8
2023-01-17T01:57:25.805Z,978.8
2023-01-17T01:58:25.796Z,978.8
2023-01-17T01:59:25.799Z,978.8
2023-01-17T02:00:25.795Z,978.8
2023-01-17T02:01:25.909Z,978.9
2023-01-17T02:02:25.827Z,978.9
2023-01-17T02:03:25.813Z,978.9
2023-01-17T02:04:25.807Z,979
2023-01-17T02:05:25.811Z,978.9
2023-01-17T02:06:25.796Z,979
2023-01-17T02:07:25.832Z,979
2023-01-17T02:08:25.863Z,979
2023-01-17T02:09:25.797Z,978.9
2023-01-17T02:10:25.808Z,978.9
2023-01-17T02:11:25.809Z,978.9
2023-01-17T02:12:25.794Z,978.9
2023-01-17T02:13:25.804Z,978.9
2023-01-17T02:14:25.799Z,978.9
2023-01-17T02:15:25.793Z,978.9
2023-01-17T02:16:25.820Z,978.9
2023-01-17T02:17:25.795Z,979
2023-01-17T02:18:25.799Z,979
2023-01-17T02:19:25.815Z,979.1
2023-01-17T02:20:25.816Z,979.1
2023-01-17T02:21:25.812Z,979.2
2023-01-17T02:22:25.797Z,979.3
2023-01-17T02:23:25.788Z,979.3
2023-01-17T02:24:25.827Z,979.2
2023-01-17T02:25:25.793Z,979.3
2023-01-17T02:26:25.805Z,979.3
2023-01-17T02:27:25.809Z,979.3
2023-01-17T02:28:25.794Z,979.3
2023-01-17T02:29:25.801Z,979.3
2023-01-17T02:30:25.797Z,979.4
2023-01-17T02:31:25.812Z,979.4
2023-01-17T02:32:25.789Z,979.4
2023-01-17T02:33:25.816Z,979.4
2023-01-17T02:34:25.800Z,979.5
2023-01-17T02:35:25.799Z,979.5
2023-01-17T02:36:25.803Z,979.5
2023-01-17T02:37:25.799Z,979.4
2023-01-17T02:38:25.831Z,979.5
2023-01-17T02:39:25.796Z,979.5
2023-01-17T02:40:25.794Z,979.5
2023-01-17T02:41:25.795Z,979.5
2023-01-17T02:42:25.806Z,979.5
2023-01-17T02:43:25.813Z,979.6
2023-01-17T02:44:25.797Z,979.6
2023-01-17T02:45:25.798Z,979.5
2023-01-17T02:46:25.804Z,979.6
2023-01-17T02:47:25.787Z,979.6
2023-01-17T02:48:25.820Z,979.6
2023-01-17T02:49:25.799Z,979.6
2023-01-17T02:50:25.870Z,979.7
2023-01-17T02:51:25.799Z,979.7
2023-01-17T02:52:25.814Z,979.7
2023-01-17T02:53:25.794Z,979.7
2023-01-17T02:54:25.799Z,979.7
2023-01-17T02:55:25.794Z,979.7
2023-01-17T02:56:25.789Z,979.8
2023-01-17T02:57:25.788Z,979.9
2023-01-17T02:58:25.799Z,979.9
2023-01-17T02:59:25.795Z,979.9
2023-01-17T03:00:25.786Z,979.9
2023-01-17T03:01:25.966Z,979.9
2023-01-17T03:02:25.849Z,979.9
2023-01-17T03:03:25.798Z,980
2023-01-17T03:04:25.792Z,980
2023-01-17T03:05:25.794Z,980
2023-01-17T03:06:25.788Z,980.1
2023-01-17T03:07:25.786Z,980.2
2023-01-17T03:08:25.802Z,980.2
2023-01-17T03:09:25.822Z,980.1
2023-01-17T03:10:25.848Z,980.1
2023-01-17T03:11:25.784Z,980.1
2023-01-17T03:12:25.786Z,980.2
2023-01-17T03:13:25.796Z,980.2
2023-01-17T03:14:25.788Z,980.1
2023-01-17T03:15:25.828Z,980.2
2023-01-17T03:16:25.831Z,980.2
2023-01-17T03:17:25.819Z,980.2
2023-01-17T03:18:25.796Z,980.2
2023-01-17T03:19:25.798Z,980.2
2023-01-17T03:20:25.794Z,980.2
2023-01-17T03:22:25.794Z,980.3
2023-01-17T03:23:25.782Z,980.2
2023-01-17T03:24:25.791Z,980.2
2023-01-17T03:25:25.782Z,980.2
2023-01-17T03:26:25.787Z,980.2
2023-01-17T03:27:25.783Z,980.2
2023-01-17T03:28:25.809Z,980.3
2023-01-17T03:29:25.788Z,980.3
2023-01-17T03:30:25.860Z,980.3
2023-01-17T03:31:25.794Z,980.3
2023-01-17T03:32:25.791Z,980.3
2023-01-17T03:33:25.792Z,980.3
2023-01-17T03:35:25.799Z,980.3
2023-01-17T03:36:25.781Z,980.4
2023-01-17T03:37:25.850Z,980.4
2023-01-17T03:38:25.789Z,980.4
2023-01-17T03:39:25.794Z,980.5
2023-01-17T03:40:25.823Z,980.5
2023-01-17T03:41:25.788Z,980.5
2023-01-17T03:42:25.797Z,980.5
2023-01-17T03:43:25.796Z,980.5
2023-01-17T03:44:25.789Z,980.4
2023-01-17T03:45:25.789Z,980.5
2023-01-17T03:46:25.787Z,980.5
2023-01-17T03:47:25.789Z,980.5
2023-01-17T03:48:25.787Z,980.5
2023-01-17T03:49:25.789Z,980.5
2023-01-17T03:50:25.784Z,980.5
2023-01-17T03:51:25.781Z,980.5
2023-01-17T03:52:25.790Z,980.6
2023-01-17T03:53:25.780Z,980.5
2023-01-17T03:54:25.783Z,980.6
2023-01-17T03:55:25.783Z,980.6
2023-01-17T03:56:25.833Z,980.6
2023-01-17T03:57:25.787Z,980.6
2023-01-17T03:58:25.782Z,980.6
2023-01-17T03:59:25.783Z,980.6
2023-01-17T04:00:25.796Z,980.5
2023-01-17T04:01:25.909Z,980.6
2023-01-17T04:02:25.827Z,980.6
2023-01-17T04:03:25.788Z,980.6
2023-01-17T04:04:25.778Z,980.6
2023-01-17T04:05:25.790Z,980.6
2023-01-17T04:06:25.787Z,980.7
2023-01-17T04:07:25.787Z,980.7
2023-01-17T04:08:25.797Z,980.7
2023-01-17T04:09:25.780Z,980.7
2023-01-17T04:10:25.781Z,980.8
2023-01-17T04:11:25.820Z,980.7
2023-01-17T04:12:25.789Z,980.7
2023-01-17T04:13:25.785Z,980.7
2023-01-17T04:14:25.782Z,980.7
2023-01-17T04:15:25.786Z,980.7
2023-01-17T04:16:25.837Z,980.7
2023-01-17T04:17:25.796Z,980.8
2023-01-17T04:18:25.784Z,980.8
2023-01-17T04:19:25.818Z,980.8
2023-01-17T04:20:25.780Z,980.8
2023-01-17T04:21:25.842Z,980.8
2023-01-17T04:22:25.777Z,980.8
2023-01-17T04:23:25.800Z,980.8
2023-01-17T04:24:25.800Z,980.8
2023-01-17T04:25:25.791Z,980.8
2023-01-17T04:26:25.779Z,980.9
2023-01-17T04:27:25.816Z,980.9
2023-01-17T04:28:25.784Z,980.8
2023-01-17T04:29:25.778Z,980.8
2023-01-17T04:30:25.782Z,980.9
2023-01-17T04:31:25.833Z,980.9
2023-01-17T04:32:25.784Z,981
2023-01-17T04:33:25.771Z,980.9
2023-01-17T04:35:25.771Z,981
2023-01-17T04:36:25.778Z,981
2023-01-17T04:37:25.775Z,980.9
2023-01-17T04:38:25.789Z,981
2023-01-17T04:39:25.846Z,981
2023-01-17T04:40:25.785Z,981
2023-01-17T04:41:25.786Z,981.1
2023-01-17T04:42:25.806Z,981
2023-01-17T04:43:25.785Z,981.1
2023-01-17T04:44:25.840Z,981
2023-01-17T04:45:25.785Z,981.1
2023-01-17T04:46:25.831Z,981
2023-01-17T04:47:25.781Z,981
2023-01-17T04:48:25.773Z,981
2023-01-17T04:49:25.773Z,981
2023-01-17T04:50:25.780Z,981.1
2023-01-17T04:51:25.772Z,981
2023-01-17T04:52:25.819Z,981
2023-01-17T04:53:25.780Z,981.1
2023-01-17T04:54:25.773Z,981.1
2023-01-17T04:55:25.774Z,981.1
2023-01-17T04:56:26.065Z,981.1
2023-01-17T04:57:25.777Z,981.1
2023-01-17T04:58:25.777Z,981.1
2023-01-17T04:59:25.791Z,981.1
2023-01-17T05:00:25.775Z,981.1
2023-01-17T05:01:25.991Z,981.1
2023-01-17T05:02:25.910Z,981.2
2023-01-17T05:03:25.769Z,981.2
2023-01-17T05:04:25.775Z,981.2
2023-01-17T05:05:25.776Z,981.3
2023-01-17T05:06:25.776Z,981.2
2023-01-17T05:07:25.772Z,981.3
2023-01-17T05:08:25.788Z,981.3
2023-01-17T05:09:25.842Z,981.2
2023-01-17T05:10:25.787Z,981.3
2023-01-17T05:11:25.773Z,981.3
2023-01-17T05:12:25.770Z,981.3
2023-01-17T05:13:25.809Z,981.3
2023-01-17T05:14:25.773Z,981.4
2023-01-17T05:15:25.775Z,981.4
2023-01-17T05:16:25.777Z,981.4
2023-01-17T05:17:25.778Z,981.4
2023-01-17T05:18:25.788Z,981.4
2023-01-17T05:19:25.779Z,981.4
2023-01-17T05:20:25.774Z,981.4
2023-01-17T05:21:25.791Z,981.4
2023-01-17T05:22:25.766Z,981.4
2023-01-17T05:23:25.783Z,981.4
2023-01-17T05:24:25.774Z,981.4
2023-01-17T05:25:25.781Z,981.4
2023-01-17T05:26:25.799Z,981.3
2023-01-17T05:27:25.770Z,981.4
2023-01-17T05:28:25.777Z,981.4
2023-01-17T05:29:25.768Z,981.5
2023-01-17T05:30:25.774Z,981.5
2023-01-17T05:31:25.853Z,981.5
2023-01-17T05:32:25.772Z,981.5
2023-01-17T05:33:25.783Z,981.5
2023-01-17T05:34:19.617Z,981.5
2023-01-17T05:35:25.769Z,981.5
2023-01-17T05:36:25.819Z,981.5
2023-01-17T05:37:25.769Z,981.5
2023-01-17T05:38:25.770Z,981.5
2023-01-17T05:39:25.783Z,981.5
2023-01-17T05:40:25.798Z,981.5
2023-01-17T05:41:25.783Z,981.5
2023-01-17T05:42:25.771Z,981.5
2023-01-17T05:43:25.775Z,981.5
2023-01-17T05:44:25.796Z,981.5
2023-01-17T05:45:25.773Z,981.4
2023-01-17T05:46:25.877Z,981.4
2023-01-17T05:47:25.767Z,981.4
2023-01-17T05:48:25.774Z,981.5
2023-01-17T05:49:25.767Z,981.4
2023-01-17T05:50:25.775Z,981.4
2023-01-17T05:51:25.767Z,981.4
2023-01-17T05:52:25.764Z,981.4
2023-01-17T05:53:25.766Z,981.4
2023-01-17T05:54:25.773Z,981.4
2023-01-17T05:55:25.771Z,981.4
2023-01-17T05:56:25.768Z,981.4
2023-01-17T05:57:25.775Z,981.5
2023-01-17T05:58:25.774Z,981.5
2023-01-17T05:59:36.670Z,981.5
2023-01-17T06:00:25.764Z,981.6
2023-01-17T06:01:25.798Z,981.5
2023-01-17T06:02:25.776Z,981.5
2023-01-17T06:03:25.773Z,981.6
2023-01-17T06:04:25.810Z,981.6
2023-01-17T06:05:25.767Z,981.6
2023-01-17T06:06:25.776Z,981.6
2023-01-17T06:07:25.760Z,981.6
2023-01-17T06:08:25.765Z,981.6
2023-01-17T06:09:25.781Z,981.7
2023-01-17T06:10:25.761Z,981.7
2023-01-17T06:11:25.821Z,981.8
2023-01-17T06:12:25.765Z,981.7
2023-01-17T06:13:25.760Z,981.7
2023-01-17T06:14:25.764Z,981.8
2023-01-17T06:15:25.812Z,981.8
2023-01-17T06:16:25.892Z,981.8
2023-01-17T06:17:25.774Z,981.9
2023-01-17T06:18:25.771Z,981.8
2023-01-17T06:19:25.761Z,981.9
2023-01-17T06:20:25.760Z,981.9
2023-01-17T06:21:25.773Z,981.8
2023-01-17T06:22:25.767Z,981.9
2023-01-17T06:23:25.773Z,981.9
2023-01-17T06:24:25.766Z,981.9
2023-01-17T06:25:25.763Z,981.9
2023-01-17T06:26:25.764Z,981.9
2023-01-17T06:27:25.784Z,981.9
2023-01-17T06:28:25.770Z,981.9
2023-01-17T06:29:25.765Z,981.9
2023-01-17T06:30:25.787Z,981.9
2023-01-17T06:31:25.790Z,982
2023-01-17T06:32:25.763Z,982
2023-01-17T06:33:25.756Z,982
2023-01-17T06:34:25.759Z,982
2023-01-17T06:35:25.767Z,982
2023-01-17T06:36:25.764Z,982
2023-01-17T06:37:25.759Z,982
2023-01-17T06:38:25.780Z,982
2023-01-17T06:39:25.776Z,982
2023-01-17T06:40:25.760Z,982.1
2023-01-17T06:41:25.835Z,982
2023-01-17T06:43:25.771Z,982.1
2023-01-17T06:44:25.763Z,982.1
2023-01-17T06:45:25.765Z,982.2
2023-01-17T06:46:25.817Z,982.2
2023-01-17T06:47:25.769Z,982.2
2023-01-17T06:48:25.762Z,982.2
2023-01-17T06:49:25.763Z,982.2
2023-01-17T06:50:25.767Z,982.3
2023-01-17T06:51:25.763Z,982.3
2023-01-17T06:52:25.765Z,982.3
2023-01-17T06:53:25.761Z,982.3
2023-01-17T06:54:25.764Z,982.3
2023-01-17T06:55:25.763Z,982.4
2023-01-17T06:56:25.767Z,982.4
2023-01-17T06:57:25.754Z,982.4
2023-01-17T06:58:25.776Z,982.3
2023-01-17T06:59:25.755Z,982.3
2023-01-17T07:00:25.822Z,982.4
2023-01-17T07:01:25.929Z,982.3
2023-01-17T07:02:25.762Z,982.3
2023-01-17T07:03:25.759Z,982.4
2023-01-17T07:04:25.772Z,982.4
2023-01-17T07:05:25.776Z,982.4
2023-01-17T07:06:25.760Z,982.4
2023-01-17T07:07:25.752Z,982.4
2023-01-17T07:08:25.812Z,982.4
2023-01-17T07:09:25.763Z,982.4
2023-01-17T07:10:25.770Z,982.5
2023-01-17T07:11:25.750Z,982.5
2023-01-17T07:12:25.778Z,982.4
2023-01-17T07:13:25.814Z,982.5
2023-01-17T07:14:25.751Z,982.4
2023-01-17T07:15:25.756Z,982.5
2023-01-17T07:16:25.792Z,982.5
2023-01-17T07:17:25.785Z,982.5
2023-01-17T07:18:25.754Z,982.5
2023-01-17T07:19:25.773Z,982.5
2023-01-17T07:20:25.752Z,982.5
2023-01-17T07:21:25.766Z,982.5
2023-01-17T07:22:25.758Z,982.5
2023-01-17T07:23:25.754Z,982.5
2023-01-17T07:24:25.760Z,982.5
2023-01-17T07:25:27.704Z,982.6
2023-01-17T07:26:25.755Z,982.6
2023-01-17T07:27:25.787Z,982.5
2023-01-17T07:28:25.750Z,982.5
2023-01-17T07:29:25.755Z,982.5
2023-01-17T07:30:25.748Z,982.5
2023-01-17T07:31:25.865Z,982.4
2023-01-17T07:32:25.766Z,982.4
2023-01-17T07:33:25.748Z,982.4
2023-01-17T07:34:25.916Z,982.3
2023-01-17T07:35:25.759Z,982.4
2023-01-17T07:36:25.757Z,982.3
2023-01-17T07:37:25.761Z,982.3
2023-01-17T07:38:25.755Z,982.3
2023-01-17T07:39:25.757Z,982.3
2023-01-17T07:40:25.877Z,982.4
2023-01-17T07:41:25.743Z,982.3
2023-01-17T07:42:25.759Z,982.2
2023-01-17T07:43:25.817Z,982.3
2023-01-17T07:44:25.748Z,982.3
2023-01-17T07:45:25.757Z,982.3
2023-01-17T07:46:25.813Z,982.4
2023-01-17T07:47:25.767Z,982.4
2023-01-17T07:48:25.872Z,982.4
2023-01-17T07:49:25.749Z,982.3
2023-01-17T07:50:25.855Z,982.4
2023-01-17T07:51:25.760Z,982.4
2023-01-17T07:52:25.766Z,982.4
2023-01-17T07:53:25.767Z,982.4
2023-01-17T07:54:25.746Z,982.4
2023-01-17T07:55:25.751Z,982.4
2023-01-17T07:57:25.746Z,982.4
2023-01-17T07:58:25.759Z,982.4
2023-01-17T07:59:25.746Z,982.4
2023-01-17T08:00:25.853Z,982.4
2023-01-17T08:01:25.905Z,982.5
2023-01-17T08:02:25.753Z,982.4
2023-01-17T08:03:25.747Z,982.5
2023-01-17T08:04:25.753Z,982.4
2023-01-17T08:05:25.746Z,982.5
2023-01-17T08:06:25.766Z,982.4
2023-01-17T08:07:25.746Z,982.4
2023-01-17T08:08:25.765Z,982.5
2023-01-17T08:09:25.753Z,982.4
2023-01-17T08:10:25.858Z,982.4
2023-01-17T08:11:25.745Z,982.4
2023-01-17T08:12:25.758Z,982.4
2023-01-17T08:13:25.750Z,982.4
2023-01-17T08:14:25.740Z,982.4
2023-01-17T08:15:25.738Z,982.4
2023-01-17T08:16:25.809Z,982.5
2023-01-17T08:17:25.753Z,982.4
2023-01-17T08:18:25.761Z,982.4
2023-01-17T08:19:26.008Z,982.4
2023-01-17T08:20:27.851Z,982.4
2023-01-17T08:21:25.767Z,982.4
2023-01-17T08:22:25.746Z,982.5
2023-01-17T08:23:25.744Z,982.5
2023-01-17T08:24:25.751Z,982.5
2023-01-17T08:25:25.752Z,982.5
2023-01-17T08:26:25.747Z,982.5
2023-01-17T08:27:25.751Z,982.5
2023-01-17T08:28:25.746Z,982.4
2023-01-17T08:29:25.742Z,982.5
2023-01-17T08:30:25.749Z,982.5
2023-01-17T08:31:25.798Z,982.5
2023-01-17T08:32:25.749Z,982.5
2023-01-17T08:33:25.744Z,982.5
2023-01-17T08:34:25.751Z,982.5
2023-01-17T08:35:25.746Z,982.6
2023-01-17T08:36:25.796Z,982.6
2023-01-17T08:37:25.759Z,982.5
2023-01-17T08:38:25.754Z,982.6
2023-01-17T08:39:25.743Z,982.6
2023-01-17T08:40:25.769Z,982.6
2023-01-17T08:41:25.747Z,982.6
2023-01-17T08:42:25.768Z,982.6
2023-01-17T08:43:25.748Z,982.6
2023-01-17T08:44:25.739Z,982.6
2023-01-17T08:45:25.768Z,982.6
2023-01-17T08:46:25.759Z,982.6
2023-01-17T08:47:25.759Z,982.6
2023-01-17T08:48:25.745Z,982.5
2023-01-17T08:49:25.737Z,982.5
2023-01-17T08:50:25.785Z,982.6
2023-01-17T08:51:25.836Z,982.6
2023-01-17T08:52:25.744Z,982.6
2023-01-17T08:53:25.748Z,982.6
2023-01-17T08:54:25.744Z,982.6
2023-01-17T08:55:25.746Z,982.6
2023-01-17T08:56:25.747Z,982.6
2023-01-17T08:57:25.745Z,982.6
2023-01-17T08:58:25.740Z,982.6
2023-01-17T08:59:25.751Z,982.7
2023-01-17T09:00:25.740Z,982.7
2023-01-17T09:01:25.878Z,982.7
2023-01-17T09:02:25.763Z,982.7
2023-01-17T09:04:25.829Z,982.8
2023-01-17T09:05:25.750Z,982.7
2023-01-17T09:06:25.747Z,982.7
2023-01-17T09:07:25.745Z,982.7
2023-01-17T09:08:25.743Z,982.7
2023-01-17T09:09:25.772Z,982.7
2023-01-17T09:10:25.753Z,982.8
2023-01-17T09:11:25.754Z,982.8
2023-01-17T09:12:25.771Z,982.8
2023-01-17T09:13:25.740Z,982.7
2023-01-17T09:14:25.746Z,982.8
2023-01-17T09:15:25.743Z,982.8
2023-01-17T09:16:25.795Z,982.8
2023-01-17T09:17:25.752Z,982.8
2023-01-17T09:18:25.743Z,982.8
2023-01-17T09:19:25.750Z,982.9
2023-01-17T09:20:25.745Z,982.8
2023-01-17T09:21:25.778Z,982.8
2023-01-17T09:22:25.743Z,982.8
2023-01-17T09:23:25.743Z,982.8
2023-01-17T09:24:25.743Z,982.8
2023-01-17T09:25:25.743Z,982.8
2023-01-17T09:26:25.769Z,982.8
2023-01-17T09:27:25.812Z,982.8
2023-01-17T09:28:25.742Z,982.9
2023-01-17T09:29:25.739Z,982.8
2023-01-17T09:30:25.735Z,982.8
2023-01-17T09:31:25.738Z,982.8
2023-01-17T09:32:25.743Z,982.8
2023-01-17T09:33:25.738Z,982.8
2023-01-17T09:34:25.738Z,982.9
2023-01-17T09:35:25.745Z,982.8
2023-01-17T09:36:25.736Z,982.8
2023-01-17T09:37:25.743Z,982.9
2023-01-17T09:38:25.732Z,982.9
2023-01-17T09:39:25.739Z,982.8
2023-01-17T09:40:25.731Z,982.9
2023-01-17T09:41:25.734Z,982.8
2023-01-17T09:42:25.746Z,982.8
2023-01-17T09:43:25.746Z,982.8
2023-01-17T09:44:25.737Z,982.8
2023-01-17T09:45:25.754Z,982.9
2023-01-17T09:46:25.732Z,982.8
2023-01-17T09:47:25.808Z,982.9
2023-01-17T09:48:25.739Z,982.8
2023-01-17T09:49:25.758Z,982.9
2023-01-17T09:50:25.743Z,982.8
2023-01-17T09:51:25.745Z,982.8
2023-01-17T09:52:25.758Z,982.8
2023-01-17T09:53:25.745Z,982.8
2023-01-17T09:54:25.742Z,982.9
2023-01-17T09:55:25.735Z,982.8
2023-01-17T09:56:25.747Z,982.8
2023-01-17T09:57:25.737Z,982.9
2023-01-17T09:58:25.744Z,982.9
2023-01-17T09:59:32.808Z,982.9
2023-01-17T10:00:25.749Z,982.9
2023-01-17T10:01:25.928Z,982.9
2023-01-17T10:02:26.723Z,982.9
2023-01-17T10:04:25.869Z,982.9
2023-01-17T10:05:25.742Z,982.9
2023-01-17T10:06:25.747Z,982.9
2023-01-17T10:07:25.746Z,983
2023-01-17T10:08:25.733Z,983
2023-01-17T10:09:25.744Z,983
2023-01-17T10:10:25.740Z,983
2023-01-17T10:11:25.738Z,983
2023-01-17T10:12:25.737Z,983
2023-01-17T10:13:25.738Z,983
2023-01-17T10:14:25.736Z,983
2023-01-17T10:15:25.735Z,983
2023-01-17T10:16:25.777Z,983
2023-01-17T10:17:25.735Z,983
2023-01-17T10:18:30.404Z,983
2023-01-17T10:19:25.736Z,983
2023-01-17T10:20:25.749Z,983
2023-01-17T10:21:25.741Z,983
2023-01-17T10:22:25.750Z,983.1
2023-01-17T10:23:25.763Z,983
2023-01-17T10:24:25.741Z,983.1
2023-01-17T10:25:25.744Z,983
2023-01-17T10:26:25.750Z,983
2023-01-17T10:27:25.752Z,983
2023-01-17T10:28:25.741Z,983
2023-01-17T10:29:25.743Z,983
2023-01-17T10:30:25.740Z,983
2023-01-17T10:31:25.734Z,983
2023-01-17T10:32:25.738Z,983
2023-01-17T10:33:25.746Z,983
2023-01-17T10:34:25.808Z,983.1
2023-01-17T10:35:25.739Z,983.1
2023-01-17T10:36:25.735Z,983
2023-01-17T10:37:25.740Z,983
2023-01-17T10:38:25.740Z,983
2023-01-17T10:39:25.746Z,983
2023-01-17T10:40:25.742Z,983
2023-01-17T10:41:25.735Z,983
2023-01-17T10:42:25.730Z,983
2023-01-17T10:43:25.743Z,983
2023-01-17T10:44:25.740Z,983
2023-01-17T10:45:25.766Z,983.1
2023-01-17T10:46:25.772Z,983.1
2023-01-17T10:47:25.734Z,983.1
2023-01-17T10:48:25.753Z,983.1
2023-01-17T10:49:25.739Z,983.1
2023-01-17T10:50:25.757Z,983.1
2023-01-17T10:51:25.743Z,983.1
2023-01-17T10:52:25.747Z,983.1
2023-01-17T10:53:25.730Z,983.1
2023-01-17T10:54:25.763Z,983.1
2023-01-17T10:56:25.754Z,983.1
2023-01-17T10:57:25.737Z,983.1
2023-01-17T10:58:25.738Z,983.1
2023-01-17T10:59:25.753Z,983
2023-01-17T11:00:25.742Z,983
2023-01-17T11:01:25.848Z,983
2023-01-17T11:02:25.926Z,983
2023-01-17T11:03:25.741Z,983
2023-01-17T11:04:25.730Z,983
2023-01-17T11:05:25.734Z,982.9
2023-01-17T11:06:25.731Z,982.9
2023-01-17T11:07:25.744Z,982.9
2023-01-17T11:08:25.736Z,982.9
2023-01-17T11:09:25.736Z,982.9
2023-01-17T11:10:25.732Z,982.9
2023-01-17T11:11:25.734Z,982.9
2023-01-17T11:12:25.738Z,982.9
2023-01-17T11:13:25.737Z,982.8
2023-01-17T11:14:25.735Z,982.8
2023-01-17T11:15:25.844Z,982.8
2023-01-17T11:16:27.509Z,982.8
2023-01-17T11:17:25.761Z,982.8
2023-01-17T11:19:25.745Z,982.8
2023-01-17T11:20:25.734Z,982.8
2023-01-17T11:21:25.725Z,982.8
2023-01-17T11:22:25.730Z,982.8
2023-01-17T11:23:25.736Z,982.9
2023-01-17T11:24:25.747Z,982.8
2023-01-17T11:25:25.760Z,982.9
2023-01-17T11:26:25.764Z,982.9
2023-01-17T11:27:25.728Z,982.9
2023-01-17T11:28:25.733Z,982.9
2023-01-17T11:29:25.738Z,982.9
2023-01-17T11:30:25.735Z,982.8
2023-01-17T11:31:25.821Z,982.8
2023-01-17T11:32:25.774Z,982.8
2023-01-17T11:33:25.739Z,982.8
2023-01-17T11:34:25.732Z,982.8
2023-01-17T11:35:25.733Z,982.8
2023-01-17T11:36:25.753Z,982.8
2023-01-17T11:37:25.736Z,982.8
2023-01-17T11:38:25.743Z,982.7
2023-01-17T11:39:25.745Z,982.8
2023-01-17T11:40:25.744Z,982.7
2023-01-17T11:41:25.729Z,982.7
2023-01-17T11:42:25.733Z,982.7
2023-01-17T11:43:25.756Z,982.7
2023-01-17T11:44:25.747Z,982.7
2023-01-17T11:45:25.732Z,982.7
2023-01-17T11:46:25.781Z,982.7
2023-01-17T11:47:25.739Z,982.8
2023-01-17T11:48:25.767Z,982.8
2023-01-17T11:49:25.733Z,982.8
2023-01-17T11:50:25.733Z,982.8
2023-01-17T11:51:25.731Z,982.8
2023-01-17T11:52:25.741Z,982.8
2023-01-17T11:53:25.746Z,982.8
2023-01-17T11:54:25.735Z,982.8
2023-01-17T11:55:26.129Z,982.8
2023-01-17T11:56:25.782Z,982.8
2023-01-17T11:57:25.746Z,982.8
2023-01-17T11:58:25.786Z,982.7
2023-01-17T11:59:25.740Z,982.7
2023-01-17T12:00:25.740Z,982.7
2023-01-17T12:01:25.737Z,982.7
2023-01-17T12:02:25.730Z,982.7
2023-01-17T12:03:25.833Z,982.7
2023-01-17T12:04:25.732Z,982.7
2023-01-17T12:05:25.734Z,982.7
2023-01-17T12:06:25.735Z,982.6
2023-01-17T12:07:25.738Z,982.6
2023-01-17T12:08:25.761Z,982.6
2023-01-17T12:09:25.735Z,982.6
2023-01-17T12:10:25.740Z,982.6
2023-01-17T12:11:25.742Z,982.6
2023-01-17T12:12:25.734Z,982.6
2023-01-17T12:13:25.726Z,982.6
2023-01-17T12:14:25.746Z,982.6
2023-01-17T12:15:25.734Z,982.6
2023-01-17T12:16:25.757Z,982.7
2023-01-17T12:17:25.748Z,982.7
2023-01-17T12:18:25.736Z,982.6
2023-01-17T12:19:25.732Z,982.6
2023-01-17T12:21:25.750Z,982.5
2023-01-17T12:22:25.742Z,982.5
2023-01-17T12:23:25.738Z,982.5
2023-01-17T12:24:25.733Z,982.5
2023-01-17T12:25:25.743Z,982.5
2023-01-17T12:26:25.743Z,982.5
2023-01-17T12:27:25.772Z,982.5
2023-01-17T12:28:25.735Z,982.5
2023-01-17T12:29:25.751Z,982.5
2023-01-17T12:30:25.736Z,982.5
2023-01-17T12:31:25.835Z,982.5
2023-01-17T12:32:25.733Z,982.5
2023-01-17T12:33:25.742Z,982.4
2023-01-17T12:34:25.740Z,982.5
2023-01-17T12:35:25.743Z,982.4
2023-01-17T12:36:25.741Z,982.4
2023-01-17T12:37:25.735Z,982.4
2023-01-17T12:38:32.504Z,982.4
2023-01-17T12:39:25.743Z,982.4
2023-01-17T12:40:25.742Z,982.4
2023-01-17T12:41:25.734Z,982.4
2023-01-17T12:42:25.731Z,982.4
2023-01-17T12:43:25.736Z,982.4
2023-01-17T12:44:25.757Z,982.4
2023-01-17T12:45:25.735Z,982.4
2023-01-17T12:46:25.823Z,982.4
2023-01-17T12:47:25.737Z,982.4
2023-01-17T12:48:25.753Z,982.4
2023-01-17T12:49:25.735Z,982.4
2023-01-17T12:50:25.729Z,982.4
2023-01-17T12:55:50.605Z,982.5
2023-01-17T12:56:36.013Z,982.4
2023-01-17T12:57:25.737Z,982.5
2023-01-17T12:58:25.763Z,982.5
2023-01-17T12:59:25.737Z,982.4
2023-01-17T13:00:25.788Z,982.4
2023-01-17T13:01:25.885Z,982.5
2023-01-17T13:02:25.758Z,982.4
2023-01-17T13:03:25.736Z,982.5
2023-01-17T13:04:25.739Z,982.5
2023-01-17T13:05:25.737Z,982.5
2023-01-17T13:06:25.788Z,982.5
2023-01-17T13:07:25.735Z,982.6
2023-01-17T13:08:25.726Z,982.5
2023-01-17T13:09:25.736Z,982.6
2023-01-17T13:10:25.742Z,982.5
2023-01-17T13:11:25.729Z,982.5
2023-01-17T13:12:25.737Z,982.5
2023-01-17T13:13:25.786Z,982.6